sensor_id;sensor_type;location;lat;lon;timestamp;pressure;altitude;pressure_sealevel;temperature;humidity
13314;BME280;6725;48.112;11.604;2022-08-30T00:00:40;91347.59;;;16.81;100.00
13314;BME280;6725;48.112;11.604;2022-08-30T00:03:24;91340.78;;;16.82;100.00
13314;BME280;6725;48.112;11.604;2022-08-30T00:05:52;91345.38;;;16.80;100.00
13314;BME280;6725;48.112;11.604;2022-08-30T00:08:17;91348.13;;;16.80;100.00
13314;BME280;6725;48.112;11.604;2022-08-30T00:10:43;91338.94;;;16.77;100.00
13314;BME280;6725;48.112;11.604;2022-08-30T00:13:10;91349.22;;;16.77;100.00
13314;BME280;6725;48.112;11.604;2022-08-30T00:15:38;91355.81;;;16.74;100.00
13314;BME280;6725;48.112;11.604;2022-08-30T00:18:04;91352.88;;;16.72;100.00
13314;BME280;6725;48.112;11.604;2022-08-30T00:20:31;91349.19;;;16.69;100.00
13314;BME280;6725;48.112;11.604;2022-08-30T00:22:58;91356.31;;;16.65;100.00
13314;BME280;6725;48.112;11.604;2022-08-30T00:25:24;91356.09;;;16.63;100.00
13314;BME280;6725;48.112;11.604;2022-08-30T00:27:49;91361.03;;;16.57;100.00
13314;BME280;6725;48.112;11.604;2022-08-30T00:30:16;91361.56;;;16.55;100.00
13314;BME280;6725;48.112;11.604;2022-08-30T00:32:42;91351.97;;;16.49;100.00
13314;BME280;6725;48.112;11.604;2022-08-30T00:35:09;91353.22;;;16.48;100.00
13314;BME280;6725;48.112;11.604;2022-08-30T00:37:34;91341.66;;;16.49;100.00
13314;BME280;6725;48.112;11.604;2022-08-30T00:40:01;91350.28;;;16.46;100.00
13314;BME280;6725;48.112;11.604;2022-08-30T00:42:27;91354.41;;;16.39;100.00
13314;BME280;6725;48.112;11.604;2022-08-30T00:44:52;91438.53;;;16.40;100.00
13314;BME280;6725;48.112;11.604;2022-08-30T00:47:19;91536.91;;;16.39;100.00
13314;BME280;6725;48.112;11.604;2022-08-30T00:49:47;91602.59;;;16.35;100.00
13314;BME280;6725;48.112;11.604;2022-08-30T00:52:15;91597.09;;;16.35;100.00
13314;BME280;6725;48.112;11.604;2022-08-30T00:54:44;91591.16;;;16.31;100.00
13314;BME280;6725;48.112;11.604;2022-08-30T00:57:12;91586.94;;;16.30;100.00
13314;BME280;6725;48.112;11.604;2022-08-30T00:59:40;91585.66;;;16.31;100.00
13314;BME280;6725;48.112;11.604;2022-08-30T01:02:07;91584.19;;;16.30;100.00
13314;BME280;6725;48.112;11.604;2022-08-30T01:04:33;91588.94;;;16.30;100.00
13314;BME280;6725;48.112;11.604;2022-08-30T01:07:00;91590.75;;;16.27;100.00
13314;BME280;6725;48.112;11.604;2022-08-30T01:09:25;91605.81;;;16.26;100.00
13314;BME280;6725;48.112;11.604;2022-08-30T01:11:51;91628.88;;;16.23;100.00
13314;BME280;6725;48.112;11.604;2022-08-30T01:14:18;91643.19;;;16.22;100.00
13314;BME280;6725;48.112;11.604;2022-08-30T01:16:46;91668.50;;;16.20;100.00
13314;BME280;6725;48.112;11.604;2022-08-30T01:22:20;91664.47;;;16.21;100.00
13314;BME280;6725;48.112;11.604;2022-08-30T01:24:49;91690.63;;;16.15;100.00
13314;BME280;6725;48.112;11.604;2022-08-30T01:27:19;91699.94;;;16.12;100.00
13314;BME280;6725;48.112;11.604;2022-08-30T01:29:45;91708.50;;;16.08;100.00
13314;BME280;6725;48.112;11.604;2022-08-30T01:32:19;91718.44;;;16.11;100.00
13314;BME280;6725;48.112;11.604;2022-08-30T01:34:45;91753.81;;;16.07;100.00
13314;BME280;6725;48.112;11.604;2022-08-30T01:37:22;91762.91;;;16.02;100.00
13314;BME280;6725;48.112;11.604;2022-08-30T01:39:49;91755.50;;;15.97;100.00
13314;BME280;6725;48.112;11.604;2022-08-30T01:42:14;91756.56;;;15.94;100.00
13314;BME280;6725;48.112;11.604;2022-08-30T01:44:41;91788.38;;;15.90;100.00
13314;BME280;6725;48.112;11.604;2022-08-30T01:47:07;91819.19;;;15.88;100.00
13314;BME280;6725;48.112;11.604;2022-08-30T01:49:32;91825.72;;;15.85;100.00
13314;BME280;6725;48.112;11.604;2022-08-30T01:51:58;91833.78;;;15.83;100.00
13314;BME280;6725;48.112;11.604;2022-08-30T01:54:23;91837.06;;;15.82;100.00
13314;BME280;6725;48.112;11.604;2022-08-30T01:56:48;91848.59;;;15.80;100.00
13314;BME280;6725;48.112;11.604;2022-08-30T01:59:14;91842.84;;;15.78;100.00
13314;BME280;6725;48.112;11.604;2022-08-30T02:01:40;91843.47;;;15.71;100.00
13314;BME280;6725;48.112;11.604;2022-08-30T02:04:07;91843.47;;;15.71;100.00
13314;BME280;6725;48.112;11.604;2022-08-30T02:06:33;93822.50;;;15.70;100.00
13314;BME280;6725;48.112;11.604;2022-08-30T02:08:59;93930.78;;;15.67;100.00
13314;BME280;6725;48.112;11.604;2022-08-30T02:11:25;93931.81;;;15.69;100.00
13314;BME280;6725;48.112;11.604;2022-08-30T02:13:51;93925.56;;;15.69;100.00
13314;BME280;6725;48.112;11.604;2022-08-30T02:16:19;93917.03;;;15.67;100.00
13314;BME280;6725;48.112;11.604;2022-08-30T02:18:47;93928.19;;;15.63;100.00
13314;BME280;6725;48.112;11.604;2022-08-30T02:21:13;93926.41;;;15.60;100.00
13314;BME280;6725;48.112;11.604;2022-08-30T02:23:39;93925.81;;;15.56;100.00
13314;BME280;6725;48.112;11.604;2022-08-30T02:26:05;93922.59;;;15.58;100.00
13314;BME280;6725;48.112;11.604;2022-08-30T02:28:30;93914.78;;;15.56;100.00
13314;BME280;6725;48.112;11.604;2022-08-30T02:30:55;93918.78;;;15.55;100.00
13314;BME280;6725;48.112;11.604;2022-08-30T02:33:21;93913.00;;;15.53;100.00
13314;BME280;6725;48.112;11.604;2022-08-30T02:35:46;93913.66;;;15.48;100.00
13314;BME280;6725;48.112;11.604;2022-08-30T02:38:12;93922.56;;;15.43;100.00
13314;BME280;6725;48.112;11.604;2022-08-30T02:40:38;93920.75;;;15.40;100.00
13314;BME280;6725;48.112;11.604;2022-08-30T02:43:03;93913.88;;;15.36;100.00
13314;BME280;6725;48.112;11.604;2022-08-30T02:45:29;93921.53;;;15.32;100.00
13314;BME280;6725;48.112;11.604;2022-08-30T02:47:54;93917.44;;;15.27;100.00
13314;BME280;6725;48.112;11.604;2022-08-30T02:50:23;93906.44;;;15.27;100.00
13314;BME280;6725;48.112;11.604;2022-08-30T02:52:48;93913.16;;;15.26;100.00
13314;BME280;6725;48.112;11.604;2022-08-30T02:55:14;93904.91;;;15.26;100.00
13314;BME280;6725;48.112;11.604;2022-08-30T02:57:40;93911.94;;;15.27;100.00
13314;BME280;6725;48.112;11.604;2022-08-30T03:00:11;93904.91;;;15.26;100.00
13314;BME280;6725;48.112;11.604;2022-08-30T03:02:37;93905.84;;;15.23;100.00
13314;BME280;6725;48.112;11.604;2022-08-30T03:05:02;93901.88;;;15.24;100.00
13314;BME280;6725;48.112;11.604;2022-08-30T03:07:28;93903.09;;;15.23;100.00
13314;BME280;6725;48.112;11.604;2022-08-30T03:09:54;93904.06;;;15.20;100.00
13314;BME280;6725;48.112;11.604;2022-08-30T03:12:19;93897.59;;;15.23;100.00
13314;BME280;6725;48.112;11.604;2022-08-30T03:14:44;93896.38;;;15.24;100.00
13314;BME280;6725;48.112;11.604;2022-08-30T03:17:10;93890.88;;;15.24;100.00
13314;BME280;6725;48.112;11.604;2022-08-30T03:19:36;93885.09;;;15.22;100.00
13314;BME280;6725;48.112;11.604;2022-08-30T03:22:05;93892.75;;;15.18;100.00
13314;BME280;6725;48.112;11.604;2022-08-30T03:24:32;93902.25;;;15.17;100.00
13314;BME280;6725;48.112;11.604;2022-08-30T03:26:58;93891.50;;;15.19;100.00
13314;BME280;6725;48.112;11.604;2022-08-30T03:29:24;93893.34;;;15.22;100.00
13314;BME280;6725;48.112;11.604;2022-08-30T03:31:49;93898.06;;;15.22;100.00
13314;BME280;6725;48.112;11.604;2022-08-30T03:34:16;93900.53;;;15.20;100.00
13314;BME280;6725;48.112;11.604;2022-08-30T03:36:42;93903.75;;;15.18;100.00
13314;BME280;6725;48.112;11.604;2022-08-30T03:39:08;93908.38;;;15.12;100.00
13314;BME280;6725;48.112;11.604;2022-08-30T03:41:34;93916.50;;;15.07;100.00
13314;BME280;6725;48.112;11.604;2022-08-30T03:44:00;93924.94;;;15.03;100.00
13314;BME280;6725;48.112;11.604;2022-08-30T03:46:26;93911.84;;;14.98;100.00
13314;BME280;6725;48.112;11.604;2022-08-30T03:48:52;93910.13;;;15.01;100.00
13314;BME280;6725;48.112;11.604;2022-08-30T03:51:21;93907.66;;;15.03;100.00
13314;BME280;6725;48.112;11.604;2022-08-30T03:53:47;93902.63;;;15.01;100.00
13314;BME280;6725;48.112;11.604;2022-08-30T03:56:12;93896.44;;;14.92;100.00
13314;BME280;6725;48.112;11.604;2022-08-30T03:58:38;93910.06;;;14.86;100.00
13314;BME280;6725;48.112;11.604;2022-08-30T04:01:05;93897.53;;;14.85;100.00
13314;BME280;6725;48.112;11.604;2022-08-30T04:03:30;93898.47;;;14.82;100.00
13314;BME280;6725;48.112;11.604;2022-08-30T04:05:55;93888.41;;;14.79;100.00
13314;BME280;6725;48.112;11.604;2022-08-30T04:08:21;93887.66;;;14.79;100.00
13314;BME280;6725;48.112;11.604;2022-08-30T04:10:47;93881.41;;;14.78;100.00
13314;BME280;6725;48.112;11.604;2022-08-30T04:13:14;93884.81;;;14.73;100.00
13314;BME280;6725;48.112;11.604;2022-08-30T04:15:40;93877.75;;;14.72;100.00
13314;BME280;6725;48.112;11.604;2022-08-30T04:18:06;93883.25;;;14.72;100.00
13314;BME280;6725;48.112;11.604;2022-08-30T04:20:31;93878.53;;;14.73;100.00
13314;BME280;6725;48.112;11.604;2022-08-30T04:22:56;93869.81;;;14.74;100.00
13314;BME280;6725;48.112;11.604;2022-08-30T04:25:22;93876.84;;;14.75;100.00
13314;BME280;6725;48.112;11.604;2022-08-30T04:27:48;93878.38;;;14.76;100.00
13314;BME280;6725;48.112;11.604;2022-08-30T04:30:14;93875.31;;;14.74;100.00
13314;BME280;6725;48.112;11.604;2022-08-30T04:32:41;93879.88;;;14.77;100.00
13314;BME280;6725;48.112;11.604;2022-08-30T04:35:07;93884.16;;;14.78;100.00
13314;BME280;6725;48.112;11.604;2022-08-30T04:37:33;93886.44;;;14.80;100.00
13314;BME280;6725;48.112;11.604;2022-08-30T04:39:58;93887.47;;;14.82;100.00
13314;BME280;6725;48.112;11.604;2022-08-30T04:42:25;93877.97;;;14.92;100.00
13314;BME280;6725;48.112;11.604;2022-08-30T04:44:54;93887.03;;;15.07;100.00
13314;BME280;6725;48.112;11.604;2022-08-30T04:47:19;93897.44;;;15.27;100.00
13314;BME280;6725;48.112;11.604;2022-08-30T04:49:45;93896.78;;;15.55;100.00
13314;BME280;6725;48.112;11.604;2022-08-30T04:52:10;93902.44;;;15.90;100.00
13314;BME280;6725;48.112;11.604;2022-08-30T04:54:35;93912.13;;;16.14;100.00
13314;BME280;6725;48.112;11.604;2022-08-30T04:57:01;93946.72;;;16.44;100.00
13314;BME280;6725;48.112;11.604;2022-08-30T04:59:27;93983.22;;;16.69;100.00
13314;BME280;6725;48.112;11.604;2022-08-30T05:01:53;94008.31;;;17.00;100.00
13314;BME280;6725;48.112;11.604;2022-08-30T05:04:18;94046.59;;;17.27;100.00
13314;BME280;6725;48.112;11.604;2022-08-30T05:06:43;94080.94;;;17.55;100.00
13314;BME280;6725;48.112;11.604;2022-08-30T05:09:09;94127.41;;;17.76;100.00
13314;BME280;6725;48.112;11.604;2022-08-30T05:11:35;94150.47;;;18.08;100.00
13314;BME280;6725;48.112;11.604;2022-08-30T05:14:01;94187.19;;;18.28;100.00
13314;BME280;6725;48.112;11.604;2022-08-30T05:16:26;94216.06;;;18.62;100.00
13314;BME280;6725;48.112;11.604;2022-08-30T05:18:52;94246.50;;;18.82;100.00
13314;BME280;6725;48.112;11.604;2022-08-30T05:21:21;94267.53;;;19.14;100.00
13314;BME280;6725;48.112;11.604;2022-08-30T05:23:48;94287.47;;;19.38;100.00
13314;BME280;6725;48.112;11.604;2022-08-30T05:26:21;94305.84;;;19.61;100.00
13314;BME280;6725;48.112;11.604;2022-08-30T05:28:48;94321.13;;;19.77;100.00
13314;BME280;6725;48.112;11.604;2022-08-30T05:33:41;94355.97;;;20.65;100.00
13314;BME280;6725;48.112;11.604;2022-08-30T05:36:08;94412.91;;;20.86;100.00
13314;BME280;6725;48.112;11.604;2022-08-30T05:38:33;94392.50;;;21.31;100.00
13314;BME280;6725;48.112;11.604;2022-08-30T05:40:59;94379.03;;;21.66;100.00
13314;BME280;6725;48.112;11.604;2022-08-30T05:43:24;94385.03;;;22.07;100.00
13314;BME280;6725;48.112;11.604;2022-08-30T05:45:59;94364.38;;;22.58;100.00
13314;BME280;6725;48.112;11.604;2022-08-30T05:48:25;94361.59;;;22.80;100.00
13314;BME280;6725;48.112;11.604;2022-08-30T05:51:00;94360.06;;;22.45;100.00
13314;BME280;6725;48.112;11.604;2022-08-30T05:53:26;94370.19;;;22.48;100.00
13314;BME280;6725;48.112;11.604;2022-08-30T05:55:51;94364.13;;;22.67;100.00
13314;BME280;6725;48.112;11.604;2022-08-30T05:58:17;94366.66;;;22.81;100.00
13314;BME280;6725;48.112;11.604;2022-08-30T06:00:42;94365.63;;;22.90;100.00
13314;BME280;6725;48.112;11.604;2022-08-30T06:03:07;94362.31;;;23.08;100.00
13314;BME280;6725;48.112;11.604;2022-08-30T06:05:36;94354.41;;;23.45;100.00
13314;BME280;6725;48.112;11.604;2022-08-30T06:08:01;94371.03;;;23.67;100.00
13314;BME280;6725;48.112;11.604;2022-08-30T06:10:27;94371.03;;;23.67;100.00
13314;BME280;6725;48.112;11.604;2022-08-30T06:12:52;94561.28;;;24.39;100.00
13314;BME280;6725;48.112;11.604;2022-08-30T06:15:17;94648.44;;;25.00;100.00
13314;BME280;6725;48.112;11.604;2022-08-30T06:17:43;94474.88;;;25.38;100.00
13314;BME280;6725;48.112;11.604;2022-08-30T06:20:09;94466.31;;;25.55;100.00
13314;BME280;6725;48.112;11.604;2022-08-30T06:22:34;94680.13;;;26.00;100.00
13314;BME280;6725;48.112;11.604;2022-08-30T06:25:00;94762.94;;;25.85;100.00
13314;BME280;6725;48.112;11.604;2022-08-30T06:27:25;94883.69;;;26.11;100.00
13314;BME280;6725;48.112;11.604;2022-08-30T06:29:52;95075.59;;;26.17;100.00
13314;BME280;6725;48.112;11.604;2022-08-30T06:32:17;95066.34;;;26.44;100.00
13314;BME280;6725;48.112;11.604;2022-08-30T06:34:43;95292.28;;;26.69;100.00
13314;BME280;6725;48.112;11.604;2022-08-30T06:37:08;95287.94;;;26.57;100.00
13314;BME280;6725;48.112;11.604;2022-08-30T06:39:34;95443.47;;;27.22;100.00
13314;BME280;6725;48.112;11.604;2022-08-30T06:42:00;95550.09;;;27.66;100.00
13314;BME280;6725;48.112;11.604;2022-08-30T06:44:26;95709.69;;;28.28;100.00
13314;BME280;6725;48.112;11.604;2022-08-30T06:46:51;95872.91;;;28.19;100.00
13314;BME280;6725;48.112;11.604;2022-08-30T06:49:17;95986.38;;;28.27;100.00
13314;BME280;6725;48.112;11.604;2022-08-30T06:51:42;96078.75;;;28.51;100.00
13314;BME280;6725;48.112;11.604;2022-08-30T06:54:09;96157.88;;;29.39;100.00
13314;BME280;6725;48.112;11.604;2022-08-30T06:56:35;96207.66;;;29.75;100.00
13314;BME280;6725;48.112;11.604;2022-08-30T06:59:00;96212.56;;;29.97;100.00
13314;BME280;6725;48.112;11.604;2022-08-30T07:01:28;96187.72;;;30.34;100.00
13314;BME280;6725;48.112;11.604;2022-08-30T07:03:54;96160.72;;;30.66;100.00
13314;BME280;6725;48.112;11.604;2022-08-30T07:06:20;96153.50;;;30.87;100.00
13314;BME280;6725;48.112;11.604;2022-08-30T07:08:46;96050.06;;;31.41;100.00
13314;BME280;6725;48.112;11.604;2022-08-30T07:11:14;95878.25;;;31.69;100.00
13314;BME280;6725;48.112;11.604;2022-08-30T07:13:39;95815.28;;;32.11;95.39
13314;BME280;6725;48.112;11.604;2022-08-30T07:16:10;95746.41;;;31.72;97.79
13314;BME280;6725;48.112;11.604;2022-08-30T07:18:36;95722.34;;;31.65;95.78
13314;BME280;6725;48.112;11.604;2022-08-30T07:21:24;95707.00;;;32.16;94.18
13314;BME280;6725;48.112;11.604;2022-08-30T07:23:51;95600.78;;;32.73;90.93
13314;BME280;6725;48.112;11.604;2022-08-30T07:26:21;95561.41;;;32.88;87.58
13314;BME280;6725;48.112;11.604;2022-08-30T07:28:47;95526.25;;;32.57;91.81
13314;BME280;6725;48.112;11.604;2022-08-30T07:31:14;95541.69;;;33.42;84.90
13314;BME280;6725;48.112;11.604;2022-08-30T07:33:40;95550.53;;;33.93;79.61
13314;BME280;6725;48.112;11.604;2022-08-30T07:36:06;95557.75;;;33.80;78.17
13314;BME280;6725;48.112;11.604;2022-08-30T07:38:32;95544.41;;;32.62;83.41
13314;BME280;6725;48.112;11.604;2022-08-30T07:40:58;95566.47;;;33.82;76.20
13314;BME280;6725;48.112;11.604;2022-08-30T07:43:28;95572.53;;;33.32;78.90
13314;BME280;6725;48.112;11.604;2022-08-30T07:45:54;95570.50;;;33.66;78.15
13314;BME280;6725;48.112;11.604;2022-08-30T07:48:21;95580.88;;;34.26;73.45
13314;BME280;6725;48.112;11.604;2022-08-30T07:50:46;95597.91;;;35.02;68.43
13314;BME280;6725;48.112;11.604;2022-08-30T07:53:12;95602.91;;;34.61;68.60
13314;BME280;6725;48.112;11.604;2022-08-30T07:55:38;95598.03;;;34.69;68.90
13314;BME280;6725;48.112;11.604;2022-08-30T07:58:04;95605.94;;;33.80;72.41
13314;BME280;6725;48.112;11.604;2022-08-30T08:00:29;95602.22;;;32.66;80.59
13314;BME280;6725;48.112;11.604;2022-08-30T08:02:55;95611.09;;;34.03;73.17
13314;BME280;6725;48.112;11.604;2022-08-30T08:05:20;95604.59;;;34.15;68.90
13314;BME280;6725;48.112;11.604;2022-08-30T08:07:46;95610.00;;;34.75;68.78
13314;BME280;6725;48.112;11.604;2022-08-30T08:10:12;95614.16;;;35.02;64.02
13314;BME280;6725;48.112;11.604;2022-08-30T08:12:38;95611.84;;;34.65;64.35
13314;BME280;6725;48.112;11.604;2022-08-30T08:15:04;95615.00;;;33.32;72.64
13314;BME280;6725;48.112;11.604;2022-08-30T08:17:30;95615.44;;;33.83;71.47
13314;BME280;6725;48.112;11.604;2022-08-30T08:19:55;95611.53;;;33.39;72.42
13314;BME280;6725;48.112;11.604;2022-08-30T08:22:20;95604.34;;;35.38;63.78
13314;BME280;6725;48.112;11.604;2022-08-30T08:24:46;95609.09;;;34.52;65.27
13314;BME280;6725;48.112;11.604;2022-08-30T08:27:11;95611.41;;;34.33;65.54
13314;BME280;6725;48.112;11.604;2022-08-30T08:29:36;95614.97;;;33.58;68.86
13314;BME280;6725;48.112;11.604;2022-08-30T08:32:02;95617.31;;;33.47;71.59
13314;BME280;6725;48.112;11.604;2022-08-30T08:34:27;95624.09;;;33.77;68.32
13314;BME280;6725;48.112;11.604;2022-08-30T08:36:53;95609.72;;;34.17;66.58
13314;BME280;6725;48.112;11.604;2022-08-30T08:39:19;95612.50;;;35.42;64.72
13314;BME280;6725;48.112;11.604;2022-08-30T08:41:57;95608.91;;;35.06;64.79
13314;BME280;6725;48.112;11.604;2022-08-30T08:44:34;95618.19;;;34.78;59.79
13314;BME280;6725;48.112;11.604;2022-08-30T08:47:12;95621.69;;;33.68;63.68
13314;BME280;6725;48.112;11.604;2022-08-30T08:49:41;95619.59;;;33.22;66.48
13314;BME280;6725;48.112;11.604;2022-08-30T08:52:15;95623.72;;;33.47;68.30
13314;BME280;6725;48.112;11.604;2022-08-30T08:55:08;95624.59;;;33.29;67.49
13314;BME280;6725;48.112;11.604;2022-08-30T08:57:34;95625.59;;;33.78;60.67
13314;BME280;6725;48.112;11.604;2022-08-30T09:00:11;95621.16;;;33.23;65.06
13314;BME280;6725;48.112;11.604;2022-08-30T09:03:07;95616.13;;;33.76;63.56
13314;BME280;6725;48.112;11.604;2022-08-30T09:05:37;95608.63;;;33.06;67.14
13314;BME280;6725;48.112;11.604;2022-08-30T09:08:06;95614.59;;;33.41;59.97
13314;BME280;6725;48.112;11.604;2022-08-30T09:10:33;95605.63;;;33.50;63.42
13314;BME280;6725;48.112;11.604;2022-08-30T09:13:00;95601.06;;;34.22;60.92
13314;BME280;6725;48.112;11.604;2022-08-30T09:15:30;95606.34;;;33.17;63.83
13314;BME280;6725;48.112;11.604;2022-08-30T09:18:00;95614.50;;;34.22;57.63
13314;BME280;6725;48.112;11.604;2022-08-30T09:20:31;95605.06;;;34.96;57.07
13314;BME280;6725;48.112;11.604;2022-08-30T09:22:57;95602.41;;;34.01;59.65
13314;BME280;6725;48.112;11.604;2022-08-30T09:25:27;95602.09;;;35.09;57.42
13314;BME280;6725;48.112;11.604;2022-08-30T09:27:54;95603.91;;;34.02;56.61
13314;BME280;6725;48.112;11.604;2022-08-30T09:30:32;95601.56;;;32.73;60.12
13314;BME280;6725;48.112;11.604;2022-08-30T09:33:00;95609.09;;;31.07;69.60
13314;BME280;6725;48.112;11.604;2022-08-30T09:35:36;95598.53;;;32.97;63.75
13314;BME280;6725;48.112;11.604;2022-08-30T09:38:05;95592.84;;;33.91;58.41
13314;BME280;6725;48.112;11.604;2022-08-30T09:40:41;95593.34;;;33.68;59.28
13314;BME280;6725;48.112;11.604;2022-08-30T09:45:49;95591.09;;;31.48;62.10
13314;BME280;6725;48.112;11.604;2022-08-30T09:48:29;95587.66;;;31.17;63.35
13314;BME280;6725;48.112;11.604;2022-08-30T09:53:35;95575.16;;;32.26;65.70
13314;BME280;6725;48.112;11.604;2022-08-30T09:56:06;95571.94;;;32.74;59.49
13314;BME280;6725;48.112;11.604;2022-08-30T10:01:15;95569.50;;;30.52;69.92
13314;BME280;6725;48.112;11.604;2022-08-30T10:03:53;95567.69;;;31.84;60.96
13314;BME280;6725;48.112;11.604;2022-08-30T10:17:31;95549.50;;;33.15;65.60
13314;BME280;6725;48.112;11.604;2022-08-30T10:20:21;95551.97;;;33.19;58.14
13314;BME280;6725;48.112;11.604;2022-08-30T10:25:26;95550.97;;;30.99;65.81
13314;BME280;6725;48.112;11.604;2022-08-30T10:28:03;95543.03;;;31.98;70.08
13314;BME280;6725;48.112;11.604;2022-08-30T10:30:32;95536.72;;;31.60;68.85
13314;BME280;6725;48.112;11.604;2022-08-30T10:33:20;95550.63;;;32.47;61.67
13314;BME280;6725;48.112;11.604;2022-08-30T10:35:51;95541.97;;;31.69;65.14
13314;BME280;6725;48.112;11.604;2022-08-30T10:38:22;95536.84;;;32.12;62.04
13314;BME280;6725;48.112;11.604;2022-08-30T10:40:57;95540.28;;;32.50;53.53
13314;BME280;6725;48.112;11.604;2022-08-30T10:46:38;95533.97;;;32.70;57.05
13314;BME280;6725;48.112;11.604;2022-08-30T10:49:13;95526.78;;;33.62;55.75
13314;BME280;6725;48.112;11.604;2022-08-30T10:52:12;95527.97;;;32.21;62.30
13314;BME280;6725;48.112;11.604;2022-08-30T10:54:47;95524.72;;;32.69;59.16
13314;BME280;6725;48.112;11.604;2022-08-30T10:57:14;95535.78;;;32.15;60.60
13314;BME280;6725;48.112;11.604;2022-08-30T10:59:57;95523.94;;;32.04;62.26
13314;BME280;6725;48.112;11.604;2022-08-30T11:13:00;95517.81;;;32.00;65.66
13314;BME280;6725;48.112;11.604;2022-08-30T11:15:33;95527.94;;;31.64;66.63
13314;BME280;6725;48.112;11.604;2022-08-30T11:20:35;95510.09;;;31.87;60.13
13314;BME280;6725;48.112;11.604;2022-08-30T11:31:33;95508.19;;;30.04;72.22
13314;BME280;6725;48.112;11.604;2022-08-30T11:33:59;95505.22;;;30.21;74.51
13314;BME280;6725;48.112;11.604;2022-08-30T11:46:51;95500.03;;;27.98;89.47
13314;BME280;6725;48.112;11.604;2022-08-30T11:52:00;95505.69;;;27.59;85.57
13314;BME280;6725;48.112;11.604;2022-08-30T11:57:59;95500.06;;;27.65;92.33
13314;BME280;6725;48.112;11.604;2022-08-30T12:02:58;95502.56;;;27.79;99.75
13314;BME280;6725;48.112;11.604;2022-08-30T12:08:05;95504.13;;;27.80;98.06
13314;BME280;6725;48.112;11.604;2022-08-30T12:10:40;95496.75;;;27.66;97.49
13314;BME280;6725;48.112;11.604;2022-08-30T12:13:06;95502.56;;;27.79;98.01
13314;BME280;6725;48.112;11.604;2022-08-30T12:15:52;95502.03;;;28.08;94.14
13314;BME280;6725;48.112;11.604;2022-08-30T12:18:27;95501.53;;;28.04;91.89
13314;BME280;6725;48.112;11.604;2022-08-30T12:23:56;95493.38;;;28.06;90.77
13314;BME280;6725;48.112;11.604;2022-08-30T12:28:50;95502.50;;;28.23;88.42
13314;BME280;6725;48.112;11.604;2022-08-30T12:31:21;95492.38;;;27.87;89.29
13314;BME280;6725;48.112;11.604;2022-08-30T12:33:58;95491.06;;;28.10;92.33
13314;BME280;6725;48.112;11.604;2022-08-30T12:36:39;95491.16;;;27.55;93.49
13314;BME280;6725;48.112;11.604;2022-08-30T12:39:15;95488.84;;;27.59;94.82
13314;BME280;6725;48.112;11.604;2022-08-30T12:41:42;95496.97;;;27.13;93.57
13314;BME280;6725;48.112;11.604;2022-08-30T12:44:19;95487.34;;;27.36;92.86
13314;BME280;6725;48.112;11.604;2022-08-30T12:46:47;95486.78;;;27.10;93.60
13314;BME280;6725;48.112;11.604;2022-08-30T12:49:15;95483.75;;;27.30;92.99
13314;BME280;6725;48.112;11.604;2022-08-30T12:51:43;95484.25;;;27.23;94.02
13314;BME280;6725;48.112;11.604;2022-08-30T12:54:12;95483.25;;;27.37;90.66
13314;BME280;6725;48.112;11.604;2022-08-30T13:02:20;95480.66;;;27.56;91.32
13314;BME280;6725;48.112;11.604;2022-08-30T13:04:46;95475.03;;;27.72;88.10
13314;BME280;6725;48.112;11.604;2022-08-30T13:07:34;95485.78;;;27.57;95.42
13314;BME280;6725;48.112;11.604;2022-08-30T13:12:29;95473.78;;;27.02;100.00
13314;BME280;6725;48.112;11.604;2022-08-30T13:15:27;95463.31;;;27.19;100.00
13314;BME280;6725;48.112;11.604;2022-08-30T13:20:36;95469.97;;;27.43;98.67
13314;BME280;6725;48.112;11.604;2022-08-30T13:23:09;95464.88;;;27.14;100.00
13314;BME280;6725;48.112;11.604;2022-08-30T13:25:36;95464.31;;;27.10;100.00
13314;BME280;6725;48.112;11.604;2022-08-30T13:28:03;95458.19;;;26.95;100.00
13314;BME280;6725;48.112;11.604;2022-08-30T13:30:30;95446.75;;;26.82;100.00
13314;BME280;6725;48.112;11.604;2022-08-30T13:32:56;95447.00;;;27.17;100.00
13314;BME280;6725;48.112;11.604;2022-08-30T13:35:22;95459.50;;;27.11;100.00
13314;BME280;6725;48.112;11.604;2022-08-30T13:37:48;95456.66;;;26.83;100.00
13314;BME280;6725;48.112;11.604;2022-08-30T13:40:14;95453.59;;;26.81;100.00
13314;BME280;6725;48.112;11.604;2022-08-30T13:42:41;95463.56;;;26.77;100.00
13314;BME280;6725;48.112;11.604;2022-08-30T13:45:11;95448.25;;;26.89;100.00
13314;BME280;6725;48.112;11.604;2022-08-30T13:47:37;95446.97;;;26.84;100.00
13314;BME280;6725;48.112;11.604;2022-08-30T13:50:04;95450.53;;;26.68;100.00
13314;BME280;6725;48.112;11.604;2022-08-30T13:52:29;95461.78;;;26.90;100.00
13314;BME280;6725;48.112;11.604;2022-08-30T13:54:56;95449.53;;;26.88;100.00
13314;BME280;6725;48.112;11.604;2022-08-30T13:57:24;95460.50;;;27.08;100.00
13314;BME280;6725;48.112;11.604;2022-08-30T13:59:50;95442.94;;;26.96;100.00
13314;BME280;6725;48.112;11.604;2022-08-30T14:02:15;95440.38;;;27.42;100.00
13314;BME280;6725;48.112;11.604;2022-08-30T14:04:41;95435.28;;;27.24;100.00
13314;BME280;6725;48.112;11.604;2022-08-30T14:07:06;95427.38;;;27.39;99.52
13314;BME280;6725;48.112;11.604;2022-08-30T14:09:31;95432.97;;;27.28;97.02
13314;BME280;6725;48.112;11.604;2022-08-30T14:11:57;95434.75;;;27.09;98.86
13314;BME280;6725;48.112;11.604;2022-08-30T14:14:22;95442.16;;;26.96;96.29
13314;BME280;6725;48.112;11.604;2022-08-30T14:16:49;95421.03;;;27.22;95.33
13314;BME280;6725;48.112;11.604;2022-08-30T14:19:14;95422.78;;;27.36;94.60
13314;BME280;6725;48.112;11.604;2022-08-30T14:21:40;95426.34;;;27.15;94.89
13314;BME280;6725;48.112;11.604;2022-08-30T14:24:06;95423.31;;;27.35;94.61
13314;BME280;6725;48.112;11.604;2022-08-30T14:26:44;95421.25;;;27.19;97.73